sensor_id;sensor_type;location;lat;lon;timestamp;P1;durP1;ratioP1;P2;durP2;ratioP2
18520;SDS011;9390;51.244;6.982;2022-10-30T00:00:03;15.15;;;5.00;;
18520;SDS011;9390;51.244;6.982;2022-10-30T00:02:35;13.15;;;4.78;;
18520;SDS011;9390;51.244;6.982;2022-10-30T00:05:08;16.98;;;4.38;;
18520;SDS011;9390;51.244;6.982;2022-10-30T00:07:39;12.07;;;4.65;;
18520;SDS011;9390;51.244;6.982;2022-10-30T00:10:11;16.10;;;5.82;;
18520;SDS011;9390;51.244;6.982;2022-10-30T00:12:42;15.13;;;4.38;;
18520;SDS011;9390;51.244;6.982;2022-10-30T00:15:14;16.05;;;5.00;;
18520;SDS011;9390;51.244;6.982;2022-10-30T00:17:45;16.02;;;5.13;;
18520;SDS011;9390;51.244;6.982;2022-10-30T00:20:18;16.58;;;5.05;;
18520;SDS011;9390;51.244;6.982;2022-10-30T00:22:49;15.82;;;5.05;;
18520;SDS011;9390;51.244;6.982;2022-10-30T00:25:21;14.30;;;4.60;;
18520;SDS011;9390;51.244;6.982;2022-10-30T00:27:52;22.45;;;4.72;;
18520;SDS011;9390;51.244;6.982;2022-10-30T00:30:23;14.55;;;4.97;;
18520;SDS011;9390;51.244;6.982;2022-10-30T00:32:55;19.60;;;4.93;;
18520;SDS011;9390;51.244;6.982;2022-10-30T00:35:27;15.27;;;4.63;;
18520;SDS011;9390;51.244;6.982;2022-10-30T00:37:59;17.80;;;4.50;;
18520;SDS011;9390;51.244;6.982;2022-10-30T00:40:30;18.60;;;4.95;;
18520;SDS011;9390;51.244;6.982;2022-10-30T00:43:02;15.65;;;4.47;;
18520;SDS011;9390;51.244;6.982;2022-10-30T00:45:33;10.80;;;4.40;;
18520;SDS011;9390;51.244;6.982;2022-10-30T00:48:05;12.07;;;4.75;;
18520;SDS011;9390;51.244;6.982;2022-10-30T00:50:37;16.40;;;4.75;;
18520;SDS011;9390;51.244;6.982;2022-10-30T00:53:09;24.80;;;5.72;;
18520;SDS011;9390;51.244;6.982;2022-10-30T00:55:43;14.60;;;5.00;;
18520;SDS011;9390;51.244;6.982;2022-10-30T00:58:18;14.30;;;4.90;;
18520;SDS011;9390;51.244;6.982;2022-10-30T01:00:52;16.40;;;4.90;;
18520;SDS011;9390;51.244;6.982;2022-10-30T01:03:25;17.17;;;4.97;;
18520;SDS011;9390;51.244;6.982;2022-10-30T01:05:59;15.02;;;5.20;;
18520;SDS011;9390;51.244;6.982;2022-10-30T01:08:31;22.08;;;5.28;;
18520;SDS011;9390;51.244;6.982;2022-10-30T01:11:03;16.88;;;4.95;;
18520;SDS011;9390;51.244;6.982;2022-10-30T01:13:35;16.42;;;5.22;;
18520;SDS011;9390;51.244;6.982;2022-10-30T01:16:11;16.25;;;5.68;;
18520;SDS011;9390;51.244;6.982;2022-10-30T01:18:54;15.82;;;4.82;;
18520;SDS011;9390;51.244;6.982;2022-10-30T01:21:32;22.42;;;5.30;;
18520;SDS011;9390;51.244;6.982;2022-10-30T01:24:18;21.75;;;5.20;;
18520;SDS011;9390;51.244;6.982;2022-10-30T01:26:59;16.77;;;5.32;;
18520;SDS011;9390;51.244;6.982;2022-10-30T01:29:49;18.27;;;5.32;;
18520;SDS011;9390;51.244;6.982;2022-10-30T01:32:30;13.73;;;5.05;;
18520;SDS011;9390;51.244;6.982;2022-10-30T01:35:09;19.02;;;5.30;;
18520;SDS011;9390;51.244;6.982;2022-10-30T01:37:47;13.05;;;5.15;;
18520;SDS011;9390;51.244;6.982;2022-10-30T01:40:20;13.07;;;5.30;;
18520;SDS011;9390;51.244;6.982;2022-10-30T01:42:52;15.00;;;5.53;;
18520;SDS011;9390;51.244;6.982;2022-10-30T01:45:26;13.57;;;5.25;;
18520;SDS011;9390;51.244;6.982;2022-10-30T01:48:12;15.55;;;5.43;;
18520;SDS011;9390;51.244;6.982;2022-10-30T01:53:30;17.92;;;6.05;;
18520;SDS011;9390;51.244;6.982;2022-10-30T01:56:14;14.75;;;5.07;;
18520;SDS011;9390;51.244;6.982;2022-10-30T01:58:50;16.08;;;5.55;;
18520;SDS011;9390;51.244;6.982;2022-10-30T02:01:25;20.40;;;5.70;;
18520;SDS011;9390;51.244;6.982;2022-10-30T02:03:58;15.98;;;5.93;;
18520;SDS011;9390;51.244;6.982;2022-10-30T02:06:29;14.73;;;5.28;;
18520;SDS011;9390;51.244;6.982;2022-10-30T02:09:02;19.23;;;6.18;;
18520;SDS011;9390;51.244;6.982;2022-10-30T02:11:34;20.67;;;5.60;;
18520;SDS011;9390;51.244;6.982;2022-10-30T02:14:06;14.70;;;4.90;;
18520;SDS011;9390;51.244;6.982;2022-10-30T02:16:40;16.80;;;5.10;;
18520;SDS011;9390;51.244;6.982;2022-10-30T02:19:14;16.38;;;5.38;;
18520;SDS011;9390;51.244;6.982;2022-10-30T02:21:51;13.93;;;6.05;;
18520;SDS011;9390;51.244;6.982;2022-10-30T02:24:22;20.58;;;5.65;;
18520;SDS011;9390;51.244;6.982;2022-10-30T02:26:53;15.82;;;5.72;;
18520;SDS011;9390;51.244;6.982;2022-10-30T02:29:25;21.00;;;5.80;;
18520;SDS011;9390;51.244;6.982;2022-10-30T02:31:56;14.70;;;6.10;;
18520;SDS011;9390;51.244;6.982;2022-10-30T02:34:28;21.55;;;7.35;;
18520;SDS011;9390;51.244;6.982;2022-10-30T02:37:00;14.00;;;5.65;;
18520;SDS011;9390;51.244;6.982;2022-10-30T02:39:32;12.15;;;5.20;;
18520;SDS011;9390;51.244;6.982;2022-10-30T02:42:03;16.77;;;6.45;;
18520;SDS011;9390;51.244;6.982;2022-10-30T02:44:35;14.30;;;6.43;;
18520;SDS011;9390;51.244;6.982;2022-10-30T02:47:06;17.27;;;5.88;;
18520;SDS011;9390;51.244;6.982;2022-10-30T02:49:37;14.32;;;5.85;;
18520;SDS011;9390;51.244;6.982;2022-10-30T02:52:10;15.80;;;5.90;;
18520;SDS011;9390;51.244;6.982;2022-10-30T02:54:42;16.58;;;5.82;;
18520;SDS011;9390;51.244;6.982;2022-10-30T02:57:13;20.00;;;6.50;;
18520;SDS011;9390;51.244;6.982;2022-10-30T02:59:44;13.20;;;5.78;;
18520;SDS011;9390;51.244;6.982;2022-10-30T03:02:16;16.58;;;6.22;;
18520;SDS011;9390;51.244;6.982;2022-10-30T03:04:47;12.93;;;6.18;;
18520;SDS011;9390;51.244;6.982;2022-10-30T03:07:20;20.58;;;6.32;;
18520;SDS011;9390;51.244;6.982;2022-10-30T03:09:51;16.85;;;5.95;;
18520;SDS011;9390;51.244;6.982;2022-10-30T03:12:23;14.40;;;6.03;;
18520;SDS011;9390;51.244;6.982;2022-10-30T03:14:55;14.82;;;6.40;;
18520;SDS011;9390;51.244;6.982;2022-10-30T03:17:26;16.48;;;6.25;;
18520;SDS011;9390;51.244;6.982;2022-10-30T03:19:57;14.48;;;6.13;;
18520;SDS011;9390;51.244;6.982;2022-10-30T03:22:30;17.63;;;6.88;;
18520;SDS011;9390;51.244;6.982;2022-10-30T03:25:02;16.40;;;6.05;;
18520;SDS011;9390;51.244;6.982;2022-10-30T03:27:33;17.88;;;5.65;;
18520;SDS011;9390;51.244;6.982;2022-10-30T03:30:05;16.38;;;6.00;;
18520;SDS011;9390;51.244;6.982;2022-10-30T03:32:37;18.85;;;7.22;;
18520;SDS011;9390;51.244;6.982;2022-10-30T03:35:09;17.17;;;6.70;;
18520;SDS011;9390;51.244;6.982;2022-10-30T03:37:41;17.92;;;6.38;;
18520;SDS011;9390;51.244;6.982;2022-10-30T03:40:13;15.07;;;6.40;;
18520;SDS011;9390;51.244;6.982;2022-10-30T03:42:44;17.67;;;6.68;;
18520;SDS011;9390;51.244;6.982;2022-10-30T03:45:15;15.75;;;6.38;;
18520;SDS011;9390;51.244;6.982;2022-10-30T03:47:47;16.48;;;6.50;;
18520;SDS011;9390;51.244;6.982;2022-10-30T03:50:18;19.13;;;6.90;;
18520;SDS011;9390;51.244;6.982;2022-10-30T03:52:51;18.00;;;6.10;;
18520;SDS011;9390;51.244;6.982;2022-10-30T03:55:23;16.38;;;6.68;;
18520;SDS011;9390;51.244;6.982;2022-10-30T03:57:55;16.08;;;6.22;;
18520;SDS011;9390;51.244;6.982;2022-10-30T04:00:26;12.70;;;6.10;;
18520;SDS011;9390;51.244;6.982;2022-10-30T04:02:58;17.10;;;6.15;;
18520;SDS011;9390;51.244;6.982;2022-10-30T04:05:29;16.80;;;6.18;;
18520;SDS011;9390;51.244;6.982;2022-10-30T04:08:03;20.15;;;6.10;;
18520;SDS011;9390;51.244;6.982;2022-10-30T04:10:36;13.68;;;6.45;;
18520;SDS011;9390;51.244;6.982;2022-10-30T04:13:08;16.35;;;6.65;;
18520;SDS011;9390;51.244;6.982;2022-10-30T04:15:40;13.10;;;6.35;;
18520;SDS011;9390;51.244;6.982;2022-10-30T04:18:13;16.45;;;6.28;;
18520;SDS011;9390;51.244;6.982;2022-10-30T04:20:45;17.38;;;6.50;;
18520;SDS011;9390;51.244;6.982;2022-10-30T04:23:19;18.58;;;6.68;;
18520;SDS011;9390;51.244;6.982;2022-10-30T04:25:51;16.45;;;6.60;;
18520;SDS011;9390;51.244;6.982;2022-10-30T04:28:22;19.65;;;7.28;;
18520;SDS011;9390;51.244;6.982;2022-10-30T04:30:53;21.38;;;7.03;;
18520;SDS011;9390;51.244;6.982;2022-10-30T04:33:26;15.63;;;6.45;;
18520;SDS011;9390;51.244;6.982;2022-10-30T04:35:57;18.83;;;7.00;;
18520;SDS011;9390;51.244;6.982;2022-10-30T04:38:30;16.73;;;7.30;;
18520;SDS011;9390;51.244;6.982;2022-10-30T04:41:01;18.77;;;7.25;;
18520;SDS011;9390;51.244;6.982;2022-10-30T04:43:33;21.77;;;7.53;;
18520;SDS011;9390;51.244;6.982;2022-10-30T04:46:04;16.77;;;6.70;;
18520;SDS011;9390;51.244;6.982;2022-10-30T04:48:36;19.33;;;6.55;;
18520;SDS011;9390;51.244;6.982;2022-10-30T04:51:08;21.25;;;7.75;;
18520;SDS011;9390;51.244;6.982;2022-10-30T04:53:42;20.02;;;7.25;;
18520;SDS011;9390;51.244;6.982;2022-10-30T04:56:13;24.55;;;7.10;;
18520;SDS011;9390;51.244;6.982;2022-10-30T04:58:45;18.98;;;7.25;;
18520;SDS011;9390;51.244;6.982;2022-10-30T05:01:16;20.02;;;7.28;;
18520;SDS011;9390;51.244;6.982;2022-10-30T05:03:48;21.77;;;7.20;;
18520;SDS011;9390;51.244;6.982;2022-10-30T05:06:20;21.30;;;7.05;;
18520;SDS011;9390;51.244;6.982;2022-10-30T05:08:53;30.80;;;8.05;;
18520;SDS011;9390;51.244;6.982;2022-10-30T05:11:25;18.23;;;6.20;;
18520;SDS011;9390;51.244;6.982;2022-10-30T05:13:56;21.13;;;7.10;;
18520;SDS011;9390;51.244;6.982;2022-10-30T05:16:27;14.57;;;6.82;;
18520;SDS011;9390;51.244;6.982;2022-10-30T05:18:59;16.50;;;7.20;;
18520;SDS011;9390;51.244;6.982;2022-10-30T05:21:30;19.70;;;6.95;;
18520;SDS011;9390;51.244;6.982;2022-10-30T05:24:03;18.00;;;7.20;;
18520;SDS011;9390;51.244;6.982;2022-10-30T05:26:35;14.20;;;7.05;;
18520;SDS011;9390;51.244;6.982;2022-10-30T05:29:06;18.55;;;7.40;;
18520;SDS011;9390;51.244;6.982;2022-10-30T05:31:38;16.23;;;7.18;;
18520;SDS011;9390;51.244;6.982;2022-10-30T05:34:09;18.73;;;6.97;;
18520;SDS011;9390;51.244;6.982;2022-10-30T05:36:40;17.42;;;6.93;;
18520;SDS011;9390;51.244;6.982;2022-10-30T05:39:13;24.02;;;7.30;;
18520;SDS011;9390;51.244;6.982;2022-10-30T05:41:44;16.85;;;7.40;;
18520;SDS011;9390;51.244;6.982;2022-10-30T05:44:16;16.08;;;6.65;;
18520;SDS011;9390;51.244;6.982;2022-10-30T05:46:47;17.13;;;6.65;;
18520;SDS011;9390;51.244;6.982;2022-10-30T05:49:19;19.00;;;7.35;;
18520;SDS011;9390;51.244;6.982;2022-10-30T05:51:50;15.52;;;6.80;;
18520;SDS011;9390;51.244;6.982;2022-10-30T05:54:23;21.88;;;7.70;;
18520;SDS011;9390;51.244;6.982;2022-10-30T05:56:55;19.70;;;6.55;;
18520;SDS011;9390;51.244;6.982;2022-10-30T05:59:27;19.45;;;7.70;;
18520;SDS011;9390;51.244;6.982;2022-10-30T06:01:58;17.60;;;7.35;;
18520;SDS011;9390;51.244;6.982;2022-10-30T06:04:29;17.80;;;7.15;;
18520;SDS011;9390;51.244;6.982;2022-10-30T06:07:01;19.30;;;7.25;;
18520;SDS011;9390;51.244;6.982;2022-10-30T06:09:34;18.42;;;6.70;;
18520;SDS011;9390;51.244;6.982;2022-10-30T06:12:05;17.35;;;7.60;;
18520;SDS011;9390;51.244;6.982;2022-10-30T06:14:37;23.02;;;6.88;;
18520;SDS011;9390;51.244;6.982;2022-10-30T06:17:08;18.42;;;7.22;;
18520;SDS011;9390;51.244;6.982;2022-10-30T06:19:39;17.63;;;7.60;;
18520;SDS011;9390;51.244;6.982;2022-10-30T06:22:11;18.42;;;7.70;;
18520;SDS011;9390;51.244;6.982;2022-10-30T06:24:43;24.80;;;6.95;;
18520;SDS011;9390;51.244;6.982;2022-10-30T06:27:15;20.75;;;7.70;;
18520;SDS011;9390;51.244;6.982;2022-10-30T06:29:46;23.63;;;7.50;;
18520;SDS011;9390;51.244;6.982;2022-10-30T06:32:18;21.02;;;7.25;;
18520;SDS011;9390;51.244;6.982;2022-10-30T06:34:49;18.35;;;7.43;;
18520;SDS011;9390;51.244;6.982;2022-10-30T06:37:20;19.45;;;6.90;;
18520;SDS011;9390;51.244;6.982;2022-10-30T06:39:53;22.40;;;7.75;;
18520;SDS011;9390;51.244;6.982;2022-10-30T06:42:24;25.20;;;8.02;;
18520;SDS011;9390;51.244;6.982;2022-10-30T06:44:56;22.38;;;7.85;;
18520;SDS011;9390;51.244;6.982;2022-10-30T06:47:33;18.63;;;7.65;;
18520;SDS011;9390;51.244;6.982;2022-10-30T06:50:05;13.80;;;6.68;;
18520;SDS011;9390;51.244;6.982;2022-10-30T06:52:37;17.65;;;7.43;;
18520;SDS011;9390;51.244;6.982;2022-10-30T06:55:10;16.35;;;7.38;;
18520;SDS011;9390;51.244;6.982;2022-10-30T07:00:13;24.00;;;7.82;;
18520;SDS011;9390;51.244;6.982;2022-10-30T07:02:53;17.45;;;8.60;;
18520;SDS011;9390;51.244;6.982;2022-10-30T07:05:25;22.35;;;7.65;;
18520;SDS011;9390;51.244;6.982;2022-10-30T07:07:57;18.85;;;8.15;;
18520;SDS011;9390;51.244;6.982;2022-10-30T07:10:30;22.52;;;8.25;;
18520;SDS011;9390;51.244;6.982;2022-10-30T07:13:01;19.40;;;7.88;;
18520;SDS011;9390;51.244;6.982;2022-10-30T07:15:32;18.83;;;8.02;;
18520;SDS011;9390;51.244;6.982;2022-10-30T07:18:04;19.83;;;7.35;;
18520;SDS011;9390;51.244;6.982;2022-10-30T07:20:35;20.27;;;7.90;;
18520;SDS011;9390;51.244;6.982;2022-10-30T07:23:07;27.05;;;8.10;;
18520;SDS011;9390;51.244;6.982;2022-10-30T07:25:39;18.00;;;7.80;;
18520;SDS011;9390;51.244;6.982;2022-10-30T07:28:11;21.85;;;7.75;;
18520;SDS011;9390;51.244;6.982;2022-10-30T07:30:42;20.98;;;8.20;;
18520;SDS011;9390;51.244;6.982;2022-10-30T07:33:13;19.20;;;7.88;;
18520;SDS011;9390;51.244;6.982;2022-10-30T07:35:45;20.83;;;7.95;;
18520;SDS011;9390;51.244;6.982;2022-10-30T07:38:16;21.70;;;7.82;;
18520;SDS011;9390;51.244;6.982;2022-10-30T07:40:51;22.52;;;7.15;;
18520;SDS011;9390;51.244;6.982;2022-10-30T07:43:23;17.00;;;8.35;;
18520;SDS011;9390;51.244;6.982;2022-10-30T07:45:54;20.60;;;8.55;;
18520;SDS011;9390;51.244;6.982;2022-10-30T07:48:26;23.92;;;8.68;;
18520;SDS011;9390;51.244;6.982;2022-10-30T07:50:57;21.25;;;7.82;;
18520;SDS011;9390;51.244;6.982;2022-10-30T07:53:29;19.05;;;7.43;;
18520;SDS011;9390;51.244;6.982;2022-10-30T07:56:02;26.92;;;7.85;;
18520;SDS011;9390;51.244;6.982;2022-10-30T07:58:33;20.45;;;7.78;;
18520;SDS011;9390;51.244;6.982;2022-10-30T08:03:37;28.35;;;7.50;;
18520;SDS011;9390;51.244;6.982;2022-10-30T08:06:09;16.13;;;6.95;;
18520;SDS011;9390;51.244;6.982;2022-10-30T08:08:40;19.27;;;7.47;;
18520;SDS011;9390;51.244;6.982;2022-10-30T08:11:13;19.58;;;6.78;;
18520;SDS011;9390;51.244;6.982;2022-10-30T08:13:44;18.30;;;6.85;;
18520;SDS011;9390;51.244;6.982;2022-10-30T08:16:15;19.13;;;6.80;;
18520;SDS011;9390;51.244;6.982;2022-10-30T08:18:47;17.77;;;6.38;;
18520;SDS011;9390;51.244;6.982;2022-10-30T08:21:18;25.55;;;6.43;;
18520;SDS011;9390;51.244;6.982;2022-10-30T08:23:50;17.27;;;6.68;;
18520;SDS011;9390;51.244;6.982;2022-10-30T08:26:23;13.30;;;6.57;;
18520;SDS011;9390;51.244;6.982;2022-10-30T08:28:54;22.77;;;6.50;;
18520;SDS011;9390;51.244;6.982;2022-10-30T08:31:25;21.40;;;6.90;;
18520;SDS011;9390;51.244;6.982;2022-10-30T08:33:57;17.15;;;6.18;;
18520;SDS011;9390;51.244;6.982;2022-10-30T08:36:28;17.50;;;6.53;;
18520;SDS011;9390;51.244;6.982;2022-10-30T08:39:00;20.27;;;6.35;;
18520;SDS011;9390;51.244;6.982;2022-10-30T08:41:34;14.63;;;5.88;;
18520;SDS011;9390;51.244;6.982;2022-10-30T08:44:05;14.65;;;5.57;;
18520;SDS011;9390;51.244;6.982;2022-10-30T08:46:37;19.73;;;5.70;;
18520;SDS011;9390;51.244;6.982;2022-10-30T08:49:08;16.85;;;5.65;;
18520;SDS011;9390;51.244;6.982;2022-10-30T08:51:39;21.73;;;6.00;;
18520;SDS011;9390;51.244;6.982;2022-10-30T08:54:11;19.50;;;6.15;;
18520;SDS011;9390;51.244;6.982;2022-10-30T08:56:44;18.70;;;5.63;;
18520;SDS011;9390;51.244;6.982;2022-10-30T08:59:16;16.13;;;5.72;;
18520;SDS011;9390;51.244;6.982;2022-10-30T09:01:47;15.88;;;5.82;;
18520;SDS011;9390;51.244;6.982;2022-10-30T09:04:20;14.68;;;5.30;;
18520;SDS011;9390;51.244;6.982;2022-10-30T09:06:51;17.17;;;5.80;;
18520;SDS011;9390;51.244;6.982;2022-10-30T09:09:22;22.70;;;5.68;;
18520;SDS011;9390;51.244;6.982;2022-10-30T09:11:55;18.13;;;5.00;;
18520;SDS011;9390;51.244;6.982;2022-10-30T09:14:27;16.90;;;4.88;;
18520;SDS011;9390;51.244;6.982;2022-10-30T09:16:58;15.23;;;5.15;;
18520;SDS011;9390;51.244;6.982;2022-10-30T09:19:29;11.18;;;4.45;;
18520;SDS011;9390;51.244;6.982;2022-10-30T09:22:01;17.17;;;5.15;;
18520;SDS011;9390;51.244;6.982;2022-10-30T09:24:32;18.40;;;4.97;;
18520;SDS011;9390;51.244;6.982;2022-10-30T09:27:05;14.85;;;4.93;;
18520;SDS011;9390;51.244;6.982;2022-10-30T09:29:36;15.30;;;4.97;;
18520;SDS011;9390;51.244;6.982;2022-10-30T09:32:08;17.40;;;4.75;;
18520;SDS011;9390;51.244;6.982;2022-10-30T09:34:39;19.67;;;5.50;;
18520;SDS011;9390;51.244;6.982;2022-10-30T09:37:10;18.58;;;5.25;;
18520;SDS011;9390;51.244;6.982;2022-10-30T09:39:42;17.88;;;5.25;;
18520;SDS011;9390;51.244;6.982;2022-10-30T09:42:24;15.82;;;5.20;;
18520;SDS011;9390;51.244;6.982;2022-10-30T09:45:09;17.50;;;5.50;;
18520;SDS011;9390;51.244;6.982;2022-10-30T09:47:50;12.75;;;4.32;;
18520;SDS011;9390;51.244;6.982;2022-10-30T09:50:27;15.73;;;5.15;;
18520;SDS011;9390;51.244;6.982;2022-10-30T09:53:02;18.90;;;5.20;;
18520;SDS011;9390;51.244;6.982;2022-10-30T09:55:39;18.17;;;4.88;;
18520;SDS011;9390;51.244;6.982;2022-10-30T09:58:19;16.58;;;5.05;;
18520;SDS011;9390;51.244;6.982;2022-10-30T10:00:55;14.27;;;4.63;;
18520;SDS011;9390;51.244;6.982;2022-10-30T10:03:41;14.35;;;5.75;;
18520;SDS011;9390;51.244;6.982;2022-10-30T10:06:22;16.38;;;4.72;;
18520;SDS011;9390;51.244;6.982;2022-10-30T10:08:55;14.45;;;5.00;;
18520;SDS011;9390;51.244;6.982;2022-10-30T10:11:30;13.77;;;4.50;;
18520;SDS011;9390;51.244;6.982;2022-10-30T10:14:05;13.07;;;4.18;;
18520;SDS011;9390;51.244;6.982;2022-10-30T10:16:39;15.73;;;4.68;;
18520;SDS011;9390;51.244;6.982;2022-10-30T10:19:13;15.80;;;4.72;;
18520;SDS011;9390;51.244;6.982;2022-10-30T10:21:48;13.38;;;4.45;;
18520;SDS011;9390;51.244;6.982;2022-10-30T10:24:23;18.13;;;4.45;;
18520;SDS011;9390;51.244;6.982;2022-10-30T10:26:58;13.48;;;4.15;;
18520;SDS011;9390;51.244;6.982;2022-10-30T10:29:36;19.58;;;4.60;;
18520;SDS011;9390;51.244;6.982;2022-10-30T10:32:26;16.83;;;4.32;;
18520;SDS011;9390;51.244;6.982;2022-10-30T10:35:21;15.43;;;4.75;;
18520;SDS011;9390;51.244;6.982;2022-10-30T10:38:01;18.48;;;5.05;;
18520;SDS011;9390;51.244;6.982;2022-10-30T10:40:39;12.75;;;4.65;;
18520;SDS011;9390;51.244;6.982;2022-10-30T10:43:20;19.95;;;5.40;;
18520;SDS011;9390;51.244;6.982;2022-10-30T10:46:03;20.52;;;5.63;;
18520;SDS011;9390;51.244;6.982;2022-10-30T10:48:46;16.80;;;4.82;;
18520;SDS011;9390;51.244;6.982;2022-10-30T10:51:23;14.07;;;4.45;;
18520;SDS011;9390;51.244;6.982;2022-10-30T10:53:58;14.65;;;5.00;;
18520;SDS011;9390;51.244;6.982;2022-10-30T10:56:33;21.38;;;4.85;;
18520;SDS011;9390;51.244;6.982;2022-10-30T10:59:11;14.25;;;4.93;;
18520;SDS011;9390;51.244;6.982;2022-10-30T11:01:47;14.65;;;4.47;;
18520;SDS011;9390;51.244;6.982;2022-10-30T11:04:24;12.60;;;4.65;;
18520;SDS011;9390;51.244;6.982;2022-10-30T11:06:58;12.23;;;4.40;;
18520;SDS011;9390;51.244;6.982;2022-10-30T11:09:34;15.05;;;4.72;;
18520;SDS011;9390;51.244;6.982;2022-10-30T11:12:05;14.23;;;4.65;;
18520;SDS011;9390;51.244;6.982;2022-10-30T11:14:36;20.20;;;5.05;;
18520;SDS011;9390;51.244;6.982;2022-10-30T11:17:12;19.13;;;4.85;;
18520;SDS011;9390;51.244;6.982;2022-10-30T11:19:46;17.85;;;5.10;;
18520;SDS011;9390;51.244;6.982;2022-10-30T11:22:20;19.70;;;4.40;;
18520;SDS011;9390;51.244;6.982;2022-10-30T11:24:54;18.75;;;4.63;;
18520;SDS011;9390;51.244;6.982;2022-10-30T11:27:26;18.45;;;5.13;;
18520;SDS011;9390;51.244;6.982;2022-10-30T11:30:00;25.85;;;4.97;;
18520;SDS011;9390;51.244;6.982;2022-10-30T11:32:33;17.65;;;4.93;;
18520;SDS011;9390;51.244;6.982;2022-10-30T11:37:42;19.92;;;4.85;;
18520;SDS011;9390;51.244;6.982;2022-10-30T11:40:15;18.33;;;5.07;;
18520;SDS011;9390;51.244;6.982;2022-10-30T11:42:48;12.90;;;4.50;;
18520;SDS011;9390;51.244;6.982;2022-10-30T11:45:28;13.30;;;4.95;;
18520;SDS011;9390;51.244;6.982;2022-10-30T11:48:07;16.83;;;4.57;;
18520;SDS011;9390;51.244;6.982;2022-10-30T11:50:40;17.58;;;4.35;;
18520;SDS011;9390;51.244;6.982;2022-10-30T11:53:18;13.75;;;4.35;;
18520;SDS011;9390;51.244;6.982;2022-10-30T11:55:50;13.18;;;4.80;;
18520;SDS011;9390;51.244;6.982;2022-10-30T11:58:22;14.02;;;4.60;;
18520;SDS011;9390;51.244;6.982;2022-10-30T12:01:00;20.35;;;5.47;;
18520;SDS011;9390;51.244;6.982;2022-10-30T12:03:36;16.80;;;4.63;;
18520;SDS011;9390;51.244;6.982;2022-10-30T12:06:09;16.25;;;4.82;;
18520;SDS011;9390;51.244;6.982;2022-10-30T12:08:56;17.52;;;5.00;;
18520;SDS011;9390;51.244;6.982;2022-10-30T12:11:29;18.52;;;4.78;;
18520;SDS011;9390;51.244;6.982;2022-10-30T12:16:33;19.30;;;4.68;;
18520;SDS011;9390;51.244;6.982;2022-10-30T12:19:06;18.00;;;4.95;;
18520;SDS011;9390;51.244;6.982;2022-10-30T12:21:44;14.35;;;4.72;;
18520;SDS011;9390;51.244;6.982;2022-10-30T12:24:18;15.23;;;5.00;;
18520;SDS011;9390;51.244;6.982;2022-10-30T12:26:51;12.60;;;4.32;;
18520;SDS011;9390;51.244;6.982;2022-10-30T12:29:24;13.13;;;4.50;;
18520;SDS011;9390;51.244;6.982;2022-10-30T12:31:58;13.82;;;4.40;;
18520;SDS011;9390;51.244;6.982;2022-10-30T12:34:35;17.30;;;4.55;;
18520;SDS011;9390;51.244;6.982;2022-10-30T12:37:10;16.48;;;4.55;;
18520;SDS011;9390;51.244;6.982;2022-10-30T12:39:48;15.60;;;4.95;;
18520;SDS011;9390;51.244;6.982;2022-10-30T12:42:24;16.73;;;4.75;;
18520;SDS011;9390;51.244;6.982;2022-10-30T12:45:01;15.52;;;4.72;;
18520;SDS011;9390;51.244;6.982;2022-10-30T12:50:16;13.70;;;4.90;;
18520;SDS011;9390;51.244;6.982;2022-10-30T12:52:50;12.43;;;4.80;;
18520;SDS011;9390;51.244;6.982;2022-10-30T12:55:28;23.35;;;4.72;;
18520;SDS011;9390;51.244;6.982;2022-10-30T12:58:03;12.57;;;4.47;;
18520;SDS011;9390;51.244;6.982;2022-10-30T13:00:39;16.40;;;4.35;;
18520;SDS011;9390;51.244;6.982;2022-10-30T13:03:19;10.90;;;3.95;;
18520;SDS011;9390;51.244;6.982;2022-10-30T13:05:56;14.02;;;4.72;;
18520;SDS011;9390;51.244;6.982;2022-10-30T13:08:31;13.93;;;3.92;;
18520;SDS011;9390;51.244;6.982;2022-10-30T13:11:06;13.48;;;4.53;;
18520;SDS011;9390;51.244;6.982;2022-10-30T13:13:41;14.85;;;4.20;;
18520;SDS011;9390;51.244;6.982;2022-10-30T13:16:15;13.32;;;4.57;;
18520;SDS011;9390;51.244;6.982;2022-10-30T13:18:48;18.98;;;4.38;;
18520;SDS011;9390;51.244;6.982;2022-10-30T13:21:22;21.15;;;4.68;;
18520;SDS011;9390;51.244;6.982;2022-10-30T13:23:57;14.02;;;4.15;;
18520;SDS011;9390;51.244;6.982;2022-10-30T13:26:33;20.20;;;4.50;;
18520;SDS011;9390;51.244;6.982;2022-10-30T13:29:12;20.23;;;4.25;;
18520;SDS011;9390;51.244;6.982;2022-10-30T13:31:51;13.77;;;4.22;;
18520;SDS011;9390;51.244;6.982;2022-10-30T13:34:35;11.90;;;4.13;;
18520;SDS011;9390;51.244;6.982;2022-10-30T13:37:13;16.80;;;4.63;;
18520;SDS011;9390;51.244;6.982;2022-10-30T13:39:52;20.85;;;4.68;;
18520;SDS011;9390;51.244;6.982;2022-10-30T13:42:35;15.40;;;4.30;;
18520;SDS011;9390;51.244;6.982;2022-10-30T13:45:25;17.67;;;4.97;;
18520;SDS011;9390;51.244;6.982;2022-10-30T13:48:07;18.48;;;4.22;;
18520;SDS011;9390;51.244;6.982;2022-10-30T13:50:45;19.27;;;4.15;;
18520;SDS011;9390;51.244;6.982;2022-10-30T13:53:34;13.52;;;3.97;;
18520;SDS011;9390;51.244;6.982;2022-10-30T13:56:07;13.70;;;3.78;;
18520;SDS011;9390;51.244;6.982;2022-10-30T13:58:42;12.23;;;4.18;;
18520;SDS011;9390;51.244;6.982;2022-10-30T14:01:15;17.52;;;4.28;;
18520;SDS011;9390;51.244;6.982;2022-10-30T14:03:50;17.10;;;4.55;;
18520;SDS011;9390;51.244;6.982;2022-10-30T14:06:25;18.10;;;4.40;;
18520;SDS011;9390;51.244;6.982;2022-10-30T14:09:05;15.05;;;4.00;;
18520;SDS011;9390;51.244;6.982;2022-10-30T14:11:42;11.80;;;4.00;;
18520;SDS011;9390;51.244;6.982;2022-10-30T14:17:06;11.38;;;4.43;;
18520;SDS011;9390;51.244;6.982;2022-10-30T14:23:04;11.88;;;3.70;;
18520;SDS011;9390;51.244;6.982;2022-10-30T14:25:39;13.57;;;3.83;;
18520;SDS011;9390;51.244;6.982;2022-10-30T14:28:17;16.10;;;4.18;;
18520;SDS011;9390;51.244;6.982;2022-10-30T14:30:56;13.02;;;3.85;;
18520;SDS011;9390;51.244;6.982;2022-10-30T14:33:41;15.82;;;4.13;;
18520;SDS011;9390;51.244;6.982;2022-10-30T14:38:53;9.52;;;3.58;;
18520;SDS011;9390;51.244;6.982;2022-10-30T14:41:29;14.48;;;4.28;;
18520;SDS011;9390;51.244;6.982;2022-10-30T14:47:11;16.77;;;5.25;;
18520;SDS011;9390;51.244;6.982;2022-10-30T14:49:54;14.30;;;4.28;;
18520;SDS011;9390;51.244;6.982;2022-10-30T14:52:30;12.82;;;4.60;;
18520;SDS011;9390;51.244;6.982;2022-10-30T14:55:24;16.77;;;4.43;;
18520;SDS011;9390;51.244;6.982;2022-10-30T14:58:15;19.88;;;4.53;;
18520;SDS011;9390;51.244;6.982;2022-10-30T15:00:50;10.77;;;3.60;;
18520;SDS011;9390;51.244;6.982;2022-10-30T15:03:31;19.73;;;4.20;;
18520;SDS011;9390;51.244;6.982;2022-10-30T15:06:17;17.77;;;4.93;;
18520;SDS011;9390;51.244;6.982;2022-10-30T15:08:56;12.80;;;4.07;;
18520;SDS011;9390;51.244;6.982;2022-10-30T15:11:36;13.30;;;4.10;;
18520;SDS011;9390;51.244;6.982;2022-10-30T15:14:30;13.82;;;3.95;;
18520;SDS011;9390;51.244;6.982;2022-10-30T15:17:03;17.85;;;4.28;;
18520;SDS011;9390;51.244;6.982;2022-10-30T15:19:34;20.33;;;4.25;;
18520;SDS011;9390;51.244;6.982;2022-10-30T15:22:08;20.48;;;4.82;;
18520;SDS011;9390;51.244;6.982;2022-10-30T15:24:46;15.68;;;4.53;;
18520;SDS011;9390;51.244;6.982;2022-10-30T15:27:18;14.98;;;4.32;;
18520;SDS011;9390;51.244;6.982;2022-10-30T15:29:53;12.35;;;4.38;;
18520;SDS011;9390;51.244;6.982;2022-10-30T15:32:26;14.27;;;4.22;;
18520;SDS011;9390;51.244;6.982;2022-10-30T15:34:58;14.88;;;4.25;;
18520;SDS011;9390;51.244;6.982;2022-10-30T15:37:30;11.55;;;4.30;;
18520;SDS011;9390;51.244;6.982;2022-10-30T15:40:07;15.48;;;4.50;;
18520;SDS011;9390;51.244;6.982;2022-10-30T15:42:39;14.88;;;4.05;;
18520;SDS011;9390;51.244;6.982;2022-10-30T15:45:15;12.48;;;4.05;;
18520;SDS011;9390;51.244;6.982;2022-10-30T15:47:48;16.98;;;4.50;;
18520;SDS011;9390;51.244;6.982;2022-10-30T15:50:24;17.55;;;4.30;;
18520;SDS011;9390;51.244;6.982;2022-10-30T15:52:56;14.45;;;4.30;;
18520;SDS011;9390;51.244;6.982;2022-10-30T15:55:28;14.80;;;3.83;;